sensor_id;sensor_type;location;lat;lon;timestamp;P1;durP1;ratioP1;P2;durP2;ratioP2
73276;SDS011;61501;43.316;5.372;2023-11-21T00:00:12;4.15;;;2.88;;
73276;SDS011;61501;43.316;5.372;2023-11-21T00:02:42;9.25;;;3.50;;
73276;SDS011;61501;43.316;5.372;2023-11-21T00:05:11;6.20;;;3.58;;
73276;SDS011;61501;43.316;5.372;2023-11-21T00:07:39;6.28;;;3.35;;
73276;SDS011;61501;43.316;5.372;2023-11-21T00:10:07;5.95;;;2.80;;
73276;SDS011;61501;43.316;5.372;2023-11-21T00:12:36;8.10;;;3.00;;
73276;SDS011;61501;43.316;5.372;2023-11-21T00:15:01;6.78;;;3.10;;
73276;SDS011;61501;43.316;5.372;2023-11-21T00:17:28;4.38;;;2.60;;
73276;SDS011;61501;43.316;5.372;2023-11-21T00:19:53;14.48;;;3.72;;
73276;SDS011;61501;43.316;5.372;2023-11-21T00:22:19;4.45;;;2.42;;
73276;SDS011;61501;43.316;5.372;2023-11-21T00:24:45;7.03;;;3.25;;
73276;SDS011;61501;43.316;5.372;2023-11-21T00:27:11;4.80;;;2.75;;
73276;SDS011;61501;43.316;5.372;2023-11-21T00:29:37;6.63;;;3.35;;
73276;SDS011;61501;43.316;5.372;2023-11-21T00:32:12;7.28;;;3.00;;
73276;SDS011;61501;43.316;5.372;2023-11-21T00:34:38;4.95;;;2.92;;
73276;SDS011;61501;43.316;5.372;2023-11-21T00:37:17;5.65;;;2.90;;
73276;SDS011;61501;43.316;5.372;2023-11-21T00:39:43;6.38;;;3.42;;
73276;SDS011;61501;43.316;5.372;2023-11-21T00:42:12;6.28;;;3.15;;
73276;SDS011;61501;43.316;5.372;2023-11-21T00:44:40;6.25;;;3.25;;
73276;SDS011;61501;43.316;5.372;2023-11-21T00:47:24;5.43;;;3.03;;
73276;SDS011;61501;43.316;5.372;2023-11-21T00:52:59;6.80;;;3.67;;
73276;SDS011;61501;43.316;5.372;2023-11-21T00:55:27;5.30;;;3.35;;
73276;SDS011;61501;43.316;5.372;2023-11-21T00:57:53;6.00;;;2.97;;
73276;SDS011;61501;43.316;5.372;2023-11-21T01:03:05;7.47;;;3.90;;
73276;SDS011;61501;43.316;5.372;2023-11-21T01:05:32;5.60;;;3.10;;
73276;SDS011;61501;43.316;5.372;2023-11-21T01:07:59;6.30;;;2.83;;
73276;SDS011;61501;43.316;5.372;2023-11-21T01:10:25;5.95;;;3.13;;
73276;SDS011;61501;43.316;5.372;2023-11-21T01:12:50;5.90;;;2.50;;
73276;SDS011;61501;43.316;5.372;2023-11-21T01:15:16;6.40;;;3.30;;
73276;SDS011;61501;43.316;5.372;2023-11-21T01:17:42;4.40;;;3.15;;
73276;SDS011;61501;43.316;5.372;2023-11-21T01:20:07;6.85;;;2.72;;
73276;SDS011;61501;43.316;5.372;2023-11-21T01:22:37;5.10;;;2.85;;
73276;SDS011;61501;43.316;5.372;2023-11-21T01:25:04;5.93;;;2.90;;
73276;SDS011;61501;43.316;5.372;2023-11-21T01:27:32;5.82;;;2.83;;
73276;SDS011;61501;43.316;5.372;2023-11-21T01:29:59;6.80;;;2.67;;
73276;SDS011;61501;43.316;5.372;2023-11-21T01:32:25;6.22;;;3.22;;
73276;SDS011;61501;43.316;5.372;2023-11-21T01:34:53;4.97;;;2.50;;
73276;SDS011;61501;43.316;5.372;2023-11-21T01:37:20;7.10;;;2.53;;
73276;SDS011;61501;43.316;5.372;2023-11-21T01:39:47;5.63;;;3.10;;
73276;SDS011;61501;43.316;5.372;2023-11-21T01:42:13;5.15;;;2.63;;
73276;SDS011;61501;43.316;5.372;2023-11-21T01:44:39;4.90;;;2.58;;
73276;SDS011;61501;43.316;5.372;2023-11-21T01:47:05;5.55;;;2.65;;
73276;SDS011;61501;43.316;5.372;2023-11-21T01:49:32;4.57;;;2.80;;
73276;SDS011;61501;43.316;5.372;2023-11-21T01:51:58;4.75;;;2.75;;
73276;SDS011;61501;43.316;5.372;2023-11-21T01:54:24;6.30;;;2.50;;
73276;SDS011;61501;43.316;5.372;2023-11-21T01:56:50;7.22;;;2.50;;
73276;SDS011;61501;43.316;5.372;2023-11-21T01:59:20;4.85;;;2.65;;
73276;SDS011;61501;43.316;5.372;2023-11-21T02:01:47;6.20;;;2.42;;
73276;SDS011;61501;43.316;5.372;2023-11-21T02:04:15;5.00;;;2.47;;
73276;SDS011;61501;43.316;5.372;2023-11-21T02:06:41;4.82;;;2.38;;
73276;SDS011;61501;43.316;5.372;2023-11-21T02:09:07;5.70;;;2.25;;
73276;SDS011;61501;43.316;5.372;2023-11-21T02:11:34;7.15;;;2.90;;
73276;SDS011;61501;43.316;5.372;2023-11-21T02:14:00;4.43;;;2.20;;
73276;SDS011;61501;43.316;5.372;2023-11-21T02:16:26;4.50;;;2.30;;
73276;SDS011;61501;43.316;5.372;2023-11-21T02:19:06;7.13;;;3.03;;
73276;SDS011;61501;43.316;5.372;2023-11-21T02:21:50;7.18;;;2.53;;
73276;SDS011;61501;43.316;5.372;2023-11-21T02:24:23;4.78;;;2.38;;
73276;SDS011;61501;43.316;5.372;2023-11-21T02:26:49;5.75;;;2.67;;
73276;SDS011;61501;43.316;5.372;2023-11-21T02:29:19;5.38;;;2.40;;
73276;SDS011;61501;43.316;5.372;2023-11-21T02:31:55;4.63;;;2.45;;
73276;SDS011;61501;43.316;5.372;2023-11-21T02:34:57;5.73;;;2.53;;
73276;SDS011;61501;43.316;5.372;2023-11-21T02:37:26;6.63;;;2.40;;
73276;SDS011;61501;43.316;5.372;2023-11-21T02:40:08;3.95;;;1.90;;
73276;SDS011;61501;43.316;5.372;2023-11-21T02:42:36;6.72;;;2.47;;
73276;SDS011;61501;43.316;5.372;2023-11-21T02:45:06;4.63;;;1.60;;
73276;SDS011;61501;43.316;5.372;2023-11-21T02:47:33;5.75;;;2.08;;
73276;SDS011;61501;43.316;5.372;2023-11-21T02:49:59;4.45;;;1.88;;
73276;SDS011;61501;43.316;5.372;2023-11-21T02:52:35;4.70;;;1.85;;
73276;SDS011;61501;43.316;5.372;2023-11-21T02:55:07;6.57;;;1.98;;
73276;SDS011;61501;43.316;5.372;2023-11-21T02:58:23;4.10;;;1.58;;
73276;SDS011;61501;43.316;5.372;2023-11-21T03:00:51;5.30;;;1.80;;
73276;SDS011;61501;43.316;5.372;2023-11-21T03:03:17;5.15;;;1.80;;
73276;SDS011;61501;43.316;5.372;2023-11-21T03:05:43;4.78;;;1.50;;
73276;SDS011;61501;43.316;5.372;2023-11-21T03:08:30;4.82;;;2.03;;
73276;SDS011;61501;43.316;5.372;2023-11-21T03:11:10;4.47;;;1.77;;
73276;SDS011;61501;43.316;5.372;2023-11-21T03:13:35;4.18;;;1.70;;
73276;SDS011;61501;43.316;5.372;2023-11-21T03:16:01;4.40;;;1.63;;
73276;SDS011;61501;43.316;5.372;2023-11-21T03:18:26;4.40;;;1.65;;
73276;SDS011;61501;43.316;5.372;2023-11-21T03:20:54;7.20;;;1.42;;
73276;SDS011;61501;43.316;5.372;2023-11-21T03:23:19;6.72;;;1.77;;
73276;SDS011;61501;43.316;5.372;2023-11-21T03:25:45;5.63;;;1.40;;
73276;SDS011;61501;43.316;5.372;2023-11-21T03:28:12;4.00;;;1.55;;
73276;SDS011;61501;43.316;5.372;2023-11-21T03:30:38;3.72;;;1.55;;
73276;SDS011;61501;43.316;5.372;2023-11-21T03:33:03;8.90;;;2.10;;
73276;SDS011;61501;43.316;5.372;2023-11-21T03:35:29;5.55;;;1.92;;
73276;SDS011;61501;43.316;5.372;2023-11-21T03:37:54;4.15;;;1.60;;
73276;SDS011;61501;43.316;5.372;2023-11-21T03:40:21;5.97;;;1.80;;
73276;SDS011;61501;43.316;5.372;2023-11-21T03:42:47;4.90;;;1.63;;
73276;SDS011;61501;43.316;5.372;2023-11-21T03:45:12;4.07;;;1.45;;
73276;SDS011;61501;43.316;5.372;2023-11-21T03:47:40;3.78;;;1.52;;
73276;SDS011;61501;43.316;5.372;2023-11-21T03:50:10;3.95;;;1.55;;
73276;SDS011;61501;43.316;5.372;2023-11-21T03:52:35;5.38;;;1.60;;
73276;SDS011;61501;43.316;5.372;2023-11-21T03:55:02;8.00;;;1.80;;
73276;SDS011;61501;43.316;5.372;2023-11-21T03:57:28;5.38;;;1.88;;
73276;SDS011;61501;43.316;5.372;2023-11-21T03:59:53;5.50;;;1.92;;
73276;SDS011;61501;43.316;5.372;2023-11-21T04:02:19;5.30;;;2.15;;
73276;SDS011;61501;43.316;5.372;2023-11-21T04:04:45;4.88;;;2.08;;
73276;SDS011;61501;43.316;5.372;2023-11-21T04:07:10;4.72;;;1.70;;
73276;SDS011;61501;43.316;5.372;2023-11-21T04:09:38;3.78;;;1.60;;
73276;SDS011;61501;43.316;5.372;2023-11-21T04:12:04;4.15;;;1.30;;
73276;SDS011;61501;43.316;5.372;2023-11-21T04:14:30;5.63;;;2.22;;
73276;SDS011;61501;43.316;5.372;2023-11-21T04:16:56;3.95;;;1.65;;
73276;SDS011;61501;43.316;5.372;2023-11-21T04:19:22;3.30;;;1.52;;
73276;SDS011;61501;43.316;5.372;2023-11-21T04:21:48;4.15;;;1.45;;
73276;SDS011;61501;43.316;5.372;2023-11-21T04:24:14;4.53;;;1.98;;
73276;SDS011;61501;43.316;5.372;2023-11-21T04:26:39;2.80;;;1.30;;
73276;SDS011;61501;43.316;5.372;2023-11-21T04:29:05;4.82;;;1.90;;
73276;SDS011;61501;43.316;5.372;2023-11-21T04:31:31;4.85;;;1.50;;
73276;SDS011;61501;43.316;5.372;2023-11-21T04:33:57;3.97;;;1.75;;
73276;SDS011;61501;43.316;5.372;2023-11-21T04:36:32;5.55;;;1.70;;
73276;SDS011;61501;43.316;5.372;2023-11-21T04:39:06;3.70;;;1.52;;
73276;SDS011;61501;43.316;5.372;2023-11-21T04:41:38;5.18;;;2.20;;
73276;SDS011;61501;43.316;5.372;2023-11-21T04:44:05;2.58;;;1.60;;
73276;SDS011;61501;43.316;5.372;2023-11-21T04:46:31;4.40;;;1.90;;
73276;SDS011;61501;43.316;5.372;2023-11-21T04:48:57;4.40;;;1.80;;
73276;SDS011;61501;43.316;5.372;2023-11-21T04:51:23;4.90;;;1.95;;
73276;SDS011;61501;43.316;5.372;2023-11-21T04:53:49;3.97;;;1.70;;
73276;SDS011;61501;43.316;5.372;2023-11-21T04:56:15;4.65;;;1.70;;
73276;SDS011;61501;43.316;5.372;2023-11-21T04:58:43;4.32;;;1.70;;
73276;SDS011;61501;43.316;5.372;2023-11-21T05:06:41;3.50;;;1.40;;
73276;SDS011;61501;43.316;5.372;2023-11-21T05:09:07;5.15;;;1.77;;
73276;SDS011;61501;43.316;5.372;2023-11-21T05:11:37;3.80;;;1.60;;
73276;SDS011;61501;43.316;5.372;2023-11-21T05:14:03;4.85;;;1.50;;
73276;SDS011;61501;43.316;5.372;2023-11-21T05:16:30;3.22;;;1.40;;
73276;SDS011;61501;43.316;5.372;2023-11-21T05:18:56;4.03;;;1.80;;
73276;SDS011;61501;43.316;5.372;2023-11-21T05:21:25;6.63;;;1.67;;
73276;SDS011;61501;43.316;5.372;2023-11-21T05:23:57;4.22;;;1.67;;
73276;SDS011;61501;43.316;5.372;2023-11-21T05:26:23;6.53;;;2.38;;
73276;SDS011;61501;43.316;5.372;2023-11-21T05:28:49;3.38;;;1.52;;
73276;SDS011;61501;43.316;5.372;2023-11-21T05:31:15;3.72;;;1.90;;
73276;SDS011;61501;43.316;5.372;2023-11-21T05:33:40;5.53;;;1.50;;
73276;SDS011;61501;43.316;5.372;2023-11-21T05:36:06;5.03;;;1.85;;
73276;SDS011;61501;43.316;5.372;2023-11-21T05:38:33;4.35;;;1.77;;
73276;SDS011;61501;43.316;5.372;2023-11-21T05:41:00;6.32;;;1.92;;
73276;SDS011;61501;43.316;5.372;2023-11-21T05:43:26;3.72;;;1.58;;
73276;SDS011;61501;43.316;5.372;2023-11-21T05:45:54;5.28;;;1.65;;
73276;SDS011;61501;43.316;5.372;2023-11-21T05:48:19;4.35;;;1.52;;
73276;SDS011;61501;43.316;5.372;2023-11-21T05:50:46;4.75;;;1.50;;
73276;SDS011;61501;43.316;5.372;2023-11-21T05:53:13;5.07;;;2.03;;
73276;SDS011;61501;43.316;5.372;2023-11-21T05:55:40;6.53;;;1.90;;
73276;SDS011;61501;43.316;5.372;2023-11-21T05:58:06;3.88;;;1.77;;
73276;SDS011;61501;43.316;5.372;2023-11-21T06:00:32;4.97;;;2.00;;
73276;SDS011;61501;43.316;5.372;2023-11-21T06:02:58;9.93;;;2.92;;
73276;SDS011;61501;43.316;5.372;2023-11-21T06:05:25;13.90;;;1.90;;
73276;SDS011;61501;43.316;5.372;2023-11-21T06:07:55;5.40;;;2.10;;
73276;SDS011;61501;43.316;5.372;2023-11-21T06:10:23;5.40;;;2.03;;
73276;SDS011;61501;43.316;5.372;2023-11-21T06:12:50;6.63;;;2.20;;
73276;SDS011;61501;43.316;5.372;2023-11-21T06:15:16;4.78;;;2.03;;
73276;SDS011;61501;43.316;5.372;2023-11-21T06:17:45;2.72;;;1.50;;
73276;SDS011;61501;43.316;5.372;2023-11-21T06:20:14;3.38;;;1.90;;
73276;SDS011;61501;43.316;5.372;2023-11-21T06:22:44;3.33;;;2.00;;
73276;SDS011;61501;43.316;5.372;2023-11-21T06:25:30;3.80;;;1.60;;
73276;SDS011;61501;43.316;5.372;2023-11-21T06:28:04;3.83;;;2.03;;
73276;SDS011;61501;43.316;5.372;2023-11-21T06:30:30;3.97;;;1.85;;
73276;SDS011;61501;43.316;5.372;2023-11-21T06:32:55;4.40;;;1.80;;
73276;SDS011;61501;43.316;5.372;2023-11-21T06:35:21;5.22;;;1.80;;
73276;SDS011;61501;43.316;5.372;2023-11-21T06:37:56;4.95;;;1.90;;
73276;SDS011;61501;43.316;5.372;2023-11-21T06:40:22;5.53;;;1.67;;
73276;SDS011;61501;43.316;5.372;2023-11-21T06:42:48;4.15;;;1.60;;
73276;SDS011;61501;43.316;5.372;2023-11-21T06:45:14;3.70;;;1.85;;
73276;SDS011;61501;43.316;5.372;2023-11-21T06:47:41;6.32;;;1.63;;
73276;SDS011;61501;43.316;5.372;2023-11-21T06:50:06;4.18;;;1.52;;
73276;SDS011;61501;43.316;5.372;2023-11-21T06:52:35;4.32;;;1.40;;
73276;SDS011;61501;43.316;5.372;2023-11-21T06:55:01;4.72;;;1.98;;
73276;SDS011;61501;43.316;5.372;2023-11-21T06:57:27;8.32;;;2.00;;
73276;SDS011;61501;43.316;5.372;2023-11-21T06:59:52;6.43;;;2.40;;
73276;SDS011;61501;43.316;5.372;2023-11-21T07:02:21;5.38;;;1.88;;
73276;SDS011;61501;43.316;5.372;2023-11-21T07:04:53;7.35;;;1.85;;
73276;SDS011;61501;43.316;5.372;2023-11-21T07:07:27;8.98;;;2.00;;
73276;SDS011;61501;43.316;5.372;2023-11-21T07:09:53;10.40;;;2.00;;
73276;SDS011;61501;43.316;5.372;2023-11-21T07:12:18;4.45;;;1.70;;
73276;SDS011;61501;43.316;5.372;2023-11-21T07:14:44;7.40;;;3.63;;
73276;SDS011;61501;43.316;5.372;2023-11-21T07:17:10;6.47;;;1.70;;
73276;SDS011;61501;43.316;5.372;2023-11-21T07:19:49;6.18;;;1.60;;
73276;SDS011;61501;43.316;5.372;2023-11-21T07:22:15;6.00;;;1.55;;
73276;SDS011;61501;43.316;5.372;2023-11-21T07:24:49;7.35;;;1.80;;
73276;SDS011;61501;43.316;5.372;2023-11-21T07:27:16;5.22;;;1.65;;
73276;SDS011;61501;43.316;5.372;2023-11-21T07:29:42;3.78;;;1.65;;
73276;SDS011;61501;43.316;5.372;2023-11-21T07:32:07;4.47;;;1.60;;
73276;SDS011;61501;43.316;5.372;2023-11-21T07:34:34;3.85;;;1.40;;
73276;SDS011;61501;43.316;5.372;2023-11-21T07:37:01;5.65;;;1.55;;
73276;SDS011;61501;43.316;5.372;2023-11-21T07:39:27;6.13;;;1.60;;
73276;SDS011;61501;43.316;5.372;2023-11-21T07:41:53;9.10;;;1.70;;
73276;SDS011;61501;43.316;5.372;2023-11-21T07:44:19;6.43;;;1.58;;
73276;SDS011;61501;43.316;5.372;2023-11-21T07:46:53;9.07;;;1.90;;
73276;SDS011;61501;43.316;5.372;2023-11-21T07:49:25;5.65;;;1.17;;
73276;SDS011;61501;43.316;5.372;2023-11-21T07:51:53;7.63;;;1.70;;
73276;SDS011;61501;43.316;5.372;2023-11-21T07:54:19;5.55;;;1.75;;
73276;SDS011;61501;43.316;5.372;2023-11-21T07:56:46;3.80;;;1.73;;
73276;SDS011;61501;43.316;5.372;2023-11-21T07:59:12;8.80;;;2.08;;
73276;SDS011;61501;43.316;5.372;2023-11-21T08:02:00;6.38;;;1.77;;
73276;SDS011;61501;43.316;5.372;2023-11-21T08:04:25;3.13;;;1.73;;
73276;SDS011;61501;43.316;5.372;2023-11-21T08:06:51;7.82;;;1.30;;
73276;SDS011;61501;43.316;5.372;2023-11-21T08:09:16;6.53;;;1.42;;
73276;SDS011;61501;43.316;5.372;2023-11-21T08:14:37;7.10;;;1.30;;
73276;SDS011;61501;43.316;5.372;2023-11-21T08:17:04;6.07;;;1.50;;
73276;SDS011;61501;43.316;5.372;2023-11-21T08:23:07;11.25;;;1.80;;
73276;SDS011;61501;43.316;5.372;2023-11-21T08:25:33;5.82;;;1.52;;
73276;SDS011;61501;43.316;5.372;2023-11-21T08:28:08;9.30;;;1.80;;
73276;SDS011;61501;43.316;5.372;2023-11-21T08:30:34;7.10;;;1.58;;
73276;SDS011;61501;43.316;5.372;2023-11-21T08:33:00;7.85;;;2.50;;
73276;SDS011;61501;43.316;5.372;2023-11-21T08:35:28;7.88;;;1.80;;
73276;SDS011;61501;43.316;5.372;2023-11-21T08:37:54;3.97;;;1.30;;
73276;SDS011;61501;43.316;5.372;2023-11-21T08:40:20;4.68;;;1.40;;
73276;SDS011;61501;43.316;5.372;2023-11-21T08:42:46;6.05;;;1.63;;
73276;SDS011;61501;43.316;5.372;2023-11-21T08:45:13;6.20;;;1.88;;
73276;SDS011;61501;43.316;5.372;2023-11-21T08:47:50;3.47;;;1.33;;
73276;SDS011;61501;43.316;5.372;2023-11-21T08:50:16;3.58;;;1.50;;
73276;SDS011;61501;43.316;5.372;2023-11-21T08:52:42;5.55;;;1.60;;
73276;SDS011;61501;43.316;5.372;2023-11-21T08:55:08;6.45;;;2.30;;
73276;SDS011;61501;43.316;5.372;2023-11-21T08:57:45;4.75;;;1.50;;
73276;SDS011;61501;43.316;5.372;2023-11-21T09:00:33;6.57;;;1.30;;
73276;SDS011;61501;43.316;5.372;2023-11-21T09:03:02;2.67;;;1.40;;
73276;SDS011;61501;43.316;5.372;2023-11-21T09:05:29;4.43;;;1.40;;
73276;SDS011;61501;43.316;5.372;2023-11-21T09:07:55;5.57;;;1.52;;
73276;SDS011;61501;43.316;5.372;2023-11-21T09:10:33;9.02;;;1.70;;
73276;SDS011;61501;43.316;5.372;2023-11-21T09:13:02;5.72;;;1.55;;
73276;SDS011;61501;43.316;5.372;2023-11-21T09:15:28;3.95;;;1.35;;
73276;SDS011;61501;43.316;5.372;2023-11-21T09:17:53;5.40;;;1.40;;
73276;SDS011;61501;43.316;5.372;2023-11-21T09:20:19;4.50;;;1.42;;
73276;SDS011;61501;43.316;5.372;2023-11-21T09:22:48;4.25;;;1.33;;
73276;SDS011;61501;43.316;5.372;2023-11-21T09:25:14;8.90;;;1.58;;
73276;SDS011;61501;43.316;5.372;2023-11-21T09:27:40;3.33;;;1.23;;
73276;SDS011;61501;43.316;5.372;2023-11-21T09:30:07;4.55;;;1.48;;
73276;SDS011;61501;43.316;5.372;2023-11-21T09:32:37;6.10;;;1.40;;
73276;SDS011;61501;43.316;5.372;2023-11-21T09:35:04;2.38;;;1.20;;
73276;SDS011;61501;43.316;5.372;2023-11-21T09:37:30;8.77;;;1.70;;
73276;SDS011;61501;43.316;5.372;2023-11-21T09:39:56;3.75;;;1.30;;
73276;SDS011;61501;43.316;5.372;2023-11-21T09:42:26;8.32;;;1.50;;
73276;SDS011;61501;43.316;5.372;2023-11-21T09:45:17;5.78;;;1.35;;
73276;SDS011;61501;43.316;5.372;2023-11-21T09:47:49;4.55;;;1.33;;
73276;SDS011;61501;43.316;5.372;2023-11-21T09:50:17;5.38;;;1.30;;
73276;SDS011;61501;43.316;5.372;2023-11-21T09:55:29;9.65;;;1.70;;
73276;SDS011;61501;43.316;5.372;2023-11-21T09:58:00;6.07;;;1.60;;
73276;SDS011;61501;43.316;5.372;2023-11-21T10:00:28;7.10;;;1.35;;
73276;SDS011;61501;43.316;5.372;2023-11-21T10:02:58;5.55;;;1.33;;
73276;SDS011;61501;43.316;5.372;2023-11-21T10:05:24;5.93;;;1.60;;
73276;SDS011;61501;43.316;5.372;2023-11-21T10:07:50;4.68;;;1.40;;
73276;SDS011;61501;43.316;5.372;2023-11-21T10:10:17;6.65;;;1.33;;
73276;SDS011;61501;43.316;5.372;2023-11-21T10:12:55;6.35;;;1.65;;
73276;SDS011;61501;43.316;5.372;2023-11-21T10:15:34;3.33;;;1.40;;
73276;SDS011;61501;43.316;5.372;2023-11-21T10:18:01;3.40;;;1.27;;
73276;SDS011;61501;43.316;5.372;2023-11-21T10:20:28;6.90;;;1.20;;
73276;SDS011;61501;43.316;5.372;2023-11-21T10:22:55;4.03;;;1.40;;
73276;SDS011;61501;43.316;5.372;2023-11-21T10:25:22;6.60;;;1.55;;
73276;SDS011;61501;43.316;5.372;2023-11-21T10:27:48;5.60;;;0.95;;
73276;SDS011;61501;43.316;5.372;2023-11-21T10:30:22;2.25;;;1.00;;
73276;SDS011;61501;43.316;5.372;2023-11-21T10:35:38;3.70;;;1.45;;
73276;SDS011;61501;43.316;5.372;2023-11-21T10:38:07;10.88;;;4.00;;
73276;SDS011;61501;43.316;5.372;2023-11-21T10:40:37;4.90;;;1.20;;
73276;SDS011;61501;43.316;5.372;2023-11-21T10:43:08;3.53;;;1.30;;
73276;SDS011;61501;43.316;5.372;2023-11-21T10:45:34;7.75;;;1.50;;
73276;SDS011;61501;43.316;5.372;2023-11-21T10:48:04;10.32;;;1.52;;
73276;SDS011;61501;43.316;5.372;2023-11-21T10:53:02;7.72;;;1.27;;
73276;SDS011;61501;43.316;5.372;2023-11-21T10:55:29;5.03;;;1.25;;
73276;SDS011;61501;43.316;5.372;2023-11-21T10:57:57;6.05;;;1.38;;
73276;SDS011;61501;43.316;5.372;2023-11-21T11:00:28;5.88;;;1.73;;
73276;SDS011;61501;43.316;5.372;2023-11-21T11:02:55;6.55;;;1.10;;
73276;SDS011;61501;43.316;5.372;2023-11-21T11:05:25;4.95;;;1.20;;
73276;SDS011;61501;43.316;5.372;2023-11-21T11:08:02;4.15;;;1.38;;
73276;SDS011;61501;43.316;5.372;2023-11-21T11:10:30;4.72;;;0.90;;
73276;SDS011;61501;43.316;5.372;2023-11-21T11:12:57;5.35;;;1.30;;
73276;SDS011;61501;43.316;5.372;2023-11-21T11:15:24;6.32;;;1.38;;
73276;SDS011;61501;43.316;5.372;2023-11-21T11:17:51;3.17;;;1.48;;
73276;SDS011;61501;43.316;5.372;2023-11-21T11:20:22;2.67;;;1.40;;
73276;SDS011;61501;43.316;5.372;2023-11-21T11:23:10;6.85;;;1.52;;
73276;SDS011;61501;43.316;5.372;2023-11-21T11:34:45;6.57;;;1.10;;
73276;SDS011;61501;43.316;5.372;2023-11-21T11:37:18;3.47;;;1.20;;
73276;SDS011;61501;43.316;5.372;2023-11-21T11:39:44;7.93;;;1.00;;
73276;SDS011;61501;43.316;5.372;2023-11-21T11:42:14;3.58;;;1.60;;
73276;SDS011;61501;43.316;5.372;2023-11-21T11:49:59;3.80;;;0.90;;
73276;SDS011;61501;43.316;5.372;2023-11-21T11:55:08;2.95;;;0.80;;
73276;SDS011;61501;43.316;5.372;2023-11-21T11:57:39;5.32;;;1.20;;
73276;SDS011;61501;43.316;5.372;2023-11-21T12:02:57;5.53;;;1.20;;
73276;SDS011;61501;43.316;5.372;2023-11-21T12:05:27;6.85;;;1.00;;
73276;SDS011;61501;43.316;5.372;2023-11-21T12:07:56;5.43;;;1.13;;
73276;SDS011;61501;43.316;5.372;2023-11-21T12:10:26;4.55;;;1.15;;
73276;SDS011;61501;43.316;5.372;2023-11-21T12:12:57;3.92;;;0.82;;
73276;SDS011;61501;43.316;5.372;2023-11-21T12:15:24;9.77;;;1.20;;
73276;SDS011;61501;43.316;5.372;2023-11-21T12:17:55;7.50;;;1.05;;
73276;SDS011;61501;43.316;5.372;2023-11-21T12:20:22;4.63;;;1.00;;
73276;SDS011;61501;43.316;5.372;2023-11-21T12:22:49;6.35;;;1.00;;
73276;SDS011;61501;43.316;5.372;2023-11-21T12:25:20;11.52;;;1.23;;
73276;SDS011;61501;43.316;5.372;2023-11-21T12:27:52;8.20;;;1.15;;
73276;SDS011;61501;43.316;5.372;2023-11-21T12:30:18;11.60;;;1.40;;
73276;SDS011;61501;43.316;5.372;2023-11-21T12:32:50;5.03;;;1.70;;
73276;SDS011;61501;43.316;5.372;2023-11-21T12:35:17;5.18;;;1.25;;
73276;SDS011;61501;43.316;5.372;2023-11-21T12:37:46;5.80;;;0.95;;
73276;SDS011;61501;43.316;5.372;2023-11-21T12:40:13;5.15;;;0.98;;
73276;SDS011;61501;43.316;5.372;2023-11-21T12:42:53;7.22;;;1.30;;
73276;SDS011;61501;43.316;5.372;2023-11-21T12:45:22;11.45;;;1.25;;
73276;SDS011;61501;43.316;5.372;2023-11-21T12:47:51;12.35;;;1.38;;
73276;SDS011;61501;43.316;5.372;2023-11-21T12:50:28;14.85;;;1.90;;
73276;SDS011;61501;43.316;5.372;2023-11-21T12:53:07;9.88;;;2.10;;
73276;SDS011;61501;43.316;5.372;2023-11-21T12:55:35;14.68;;;1.52;;
73276;SDS011;61501;43.316;5.372;2023-11-21T12:58:08;8.88;;;1.10;;
73276;SDS011;61501;43.316;5.372;2023-11-21T13:00:36;8.50;;;1.40;;
73276;SDS011;61501;43.316;5.372;2023-11-21T13:03:12;9.35;;;1.27;;
73276;SDS011;61501;43.316;5.372;2023-11-21T13:05:42;6.75;;;1.35;;
73276;SDS011;61501;43.316;5.372;2023-11-21T13:08:16;16.90;;;2.05;;
73276;SDS011;61501;43.316;5.372;2023-11-21T13:10:45;10.55;;;1.30;;
73276;SDS011;61501;43.316;5.372;2023-11-21T13:13:13;3.13;;;0.80;;
73276;SDS011;61501;43.316;5.372;2023-11-21T13:15:52;7.90;;;1.38;;
73276;SDS011;61501;43.316;5.372;2023-11-21T13:18:22;10.07;;;1.48;;
73276;SDS011;61501;43.316;5.372;2023-11-21T13:20:49;10.43;;;1.35;;
73276;SDS011;61501;43.316;5.372;2023-11-21T13:23:15;10.13;;;1.30;;
73276;SDS011;61501;43.316;5.372;2023-11-21T13:25:41;3.80;;;1.05;;
73276;SDS011;61501;43.316;5.372;2023-11-21T13:28:07;6.97;;;1.42;;
73276;SDS011;61501;43.316;5.372;2023-11-21T13:30:35;5.88;;;1.33;;
73276;SDS011;61501;43.316;5.372;2023-11-21T13:33:04;5.97;;;1.40;;
73276;SDS011;61501;43.316;5.372;2023-11-21T13:35:35;7.55;;;1.35;;
73276;SDS011;61501;43.316;5.372;2023-11-21T13:38:09;11.05;;;1.70;;
73276;SDS011;61501;43.316;5.372;2023-11-21T13:40:37;6.82;;;1.05;;
73276;SDS011;61501;43.316;5.372;2023-11-21T13:43:14;5.07;;;0.85;;
73276;SDS011;61501;43.316;5.372;2023-11-21T13:45:41;1.95;;;0.95;;
73276;SDS011;61501;43.316;5.372;2023-11-21T13:48:08;7.50;;;1.08;;
73276;SDS011;61501;43.316;5.372;2023-11-21T13:50:57;12.80;;;1.48;;
73276;SDS011;61501;43.316;5.372;2023-11-21T13:53:26;8.30;;;1.60;;
73276;SDS011;61501;43.316;5.372;2023-11-21T13:55:52;4.10;;;1.10;;
73276;SDS011;61501;43.316;5.372;2023-11-21T13:58:22;9.68;;;1.17;;
73276;SDS011;61501;43.316;5.372;2023-11-21T14:01:00;7.72;;;1.35;;
73276;SDS011;61501;43.316;5.372;2023-11-21T14:03:26;7.32;;;1.10;;
73276;SDS011;61501;43.316;5.372;2023-11-21T14:06:04;5.07;;;1.20;;
73276;SDS011;61501;43.316;5.372;2023-11-21T14:08:39;5.25;;;1.10;;
73276;SDS011;61501;43.316;5.372;2023-11-21T14:11:05;9.50;;;1.35;;
73276;SDS011;61501;43.316;5.372;2023-11-21T14:13:31;3.40;;;1.00;;
73276;SDS011;61501;43.316;5.372;2023-11-21T14:15:58;3.10;;;0.98;;
73276;SDS011;61501;43.316;5.372;2023-11-21T14:18:26;3.33;;;0.77;;
73276;SDS011;61501;43.316;5.372;2023-11-21T14:20:56;1.55;;;0.90;;
73276;SDS011;61501;43.316;5.372;2023-11-21T14:23:22;4.78;;;1.13;;
73276;SDS011;61501;43.316;5.372;2023-11-21T14:25:48;4.53;;;0.90;;
73276;SDS011;61501;43.316;5.372;2023-11-21T14:28:17;1.73;;;0.95;;
73276;SDS011;61501;43.316;5.372;2023-11-21T14:30:44;6.38;;;1.00;;
73276;SDS011;61501;43.316;5.372;2023-11-21T14:33:13;8.60;;;1.23;;
73276;SDS011;61501;43.316;5.372;2023-11-21T14:35:38;4.22;;;0.90;;
73276;SDS011;61501;43.316;5.372;2023-11-21T14:38:04;2.78;;;0.73;;
73276;SDS011;61501;43.316;5.372;2023-11-21T14:40:30;2.63;;;0.90;;
73276;SDS011;61501;43.316;5.372;2023-11-21T14:43:07;4.85;;;1.15;;
73276;SDS011;61501;43.316;5.372;2023-11-21T14:45:33;0.95;;;0.60;;
73276;SDS011;61501;43.316;5.372;2023-11-21T14:47:59;4.18;;;1.10;;
73276;SDS011;61501;43.316;5.372;2023-11-21T14:50:51;8.13;;;1.33;;
73276;SDS011;61501;43.316;5.372;2023-11-21T14:53:16;4.00;;;0.80;;
73276;SDS011;61501;43.316;5.372;2023-11-21T14:56:00;4.07;;;1.10;;
73276;SDS011;61501;43.316;5.372;2023-11-21T14:58:28;6.20;;;1.02;;
73276;SDS011;61501;43.316;5.372;2023-11-21T15:03:24;5.30;;;1.00;;
73276;SDS011;61501;43.316;5.372;2023-11-21T15:05:56;4.95;;;1.05;;
73276;SDS011;61501;43.316;5.372;2023-11-21T15:08:22;7.03;;;0.90;;
73276;SDS011;61501;43.316;5.372;2023-11-21T15:10:57;3.47;;;1.42;;
73276;SDS011;61501;43.316;5.372;2023-11-21T15:13:23;2.22;;;1.00;;
73276;SDS011;61501;43.316;5.372;2023-11-21T15:15:51;4.70;;;1.25;;
73276;SDS011;61501;43.316;5.372;2023-11-21T15:18:19;1.75;;;0.90;;
73276;SDS011;61501;43.316;5.372;2023-11-21T15:20:45;2.65;;;0.98;;
73276;SDS011;61501;43.316;5.372;2023-11-21T15:23:11;4.75;;;1.27;;
73276;SDS011;61501;43.316;5.372;2023-11-21T15:25:41;1.55;;;0.80;;
73276;SDS011;61501;43.316;5.372;2023-11-21T15:28:07;2.35;;;0.90;;
73276;SDS011;61501;43.316;5.372;2023-11-21T15:30:33;1.83;;;0.80;;
73276;SDS011;61501;43.316;5.372;2023-11-21T15:33:00;3.42;;;0.80;;
73276;SDS011;61501;43.316;5.372;2023-11-21T15:35:25;4.63;;;1.17;;
73276;SDS011;61501;43.316;5.372;2023-11-21T15:37:53;3.10;;;0.85;;
73276;SDS011;61501;43.316;5.372;2023-11-21T15:40:22;4.07;;;1.00;;
73276;SDS011;61501;43.316;5.372;2023-11-21T15:42:48;6.43;;;1.00;;
73276;SDS011;61501;43.316;5.372;2023-11-21T15:45:14;6.13;;;1.20;;